Weather at Beaumont Municipal Airport

Public forecast

Using degrees Fahrenheit for public forecast. Weather courtesy of forecast.io.

Current aviation weather report (METAR) for Beaumont Municipal Airport

Retrieved 2020/11/30 10:30 UTC (0 seconds ago):

KBMT 301030Z AUTO 33012G16KT 10SM CLR 07/03 A3026 RMK AO2 T00740032

Closest aviation forecast (TAF) to Beaumont Municipal Airport

Closest forecast is Southeast Texas Regional Airport, 12.4 nm (23.0 km) SE. Retrieved 2020/11/30 06:22 UTC (4 hours ago):

TAF KBPT 300520Z 3006/0106 33012G19KT P6SM SKC FM301500 33015G22KT P6SM SKC FM302300 33008KT P6SM SKC FM010200 32003KT P6SM SKC